Time;durP1;ratioP1;P1;durP2;ratioP2;P2;SDS_P1;SDS_P2;PMS_P1;PMS_P2;Temp;Humidity;BMP_temperature;BMP_pressure;BME280_temperature;BME280_humidity;BME280_pressure;Samples;Min_cycle;Max_cycle;Signal;HPM_P1;HPM_P2
2023/01/06 00:01:30;;;;;;;;;;;7.50;94.90;;;;;;5013514;28;19951;-87
2023/01/06 00:03:57;;;;;;;;;;;7.60;94.90;;;;;;5014643;28;20028;-87
2023/01/06 00:06:26;;;;;;;;;;;7.50;94.70;;;;;;5010364;28;20005;-87
2023/01/06 00:08:53;;;;;;;;;;;7.60;94.70;;;;;;5014330;28;20015;-87
2023/01/06 00:11:18;;;;;;;;;;;7.50;94.50;;;;;;5014518;28;19944;-86
2023/01/06 00:13:44;;;;;;;;;;;7.50;94.60;;;;;;5012385;28;20411;-86
2023/01/06 00:16:11;;;;;;;;;;;7.50;94.60;;;;;;5012722;28;19974;-87
2023/01/06 00:18:37;;;;;;;;;;;7.50;94.60;;;;;;5014322;28;19962;-87
2023/01/06 00:21:03;;;;;;;;;;;7.50;94.60;;;;;;5010890;28;19944;-86
2023/01/06 00:23:29;;;;;;;;;;;7.50;94.60;;;;;;5012961;28;19950;-86
2023/01/06 00:25:54;;;;;;;;;;;7.50;94.70;;;;;;5014228;28;20425;-86
2023/01/06 00:28:20;;;;;;;;;;;7.50;94.90;;;;;;5013522;28;20397;-86
2023/01/06 00:30:45;;;;;;;;;;;7.50;95.00;;;;;;5012903;28;20002;-86
2023/01/06 00:33:11;;;;;;;;;;;7.50;94.80;;;;;;5011290;28;19938;-87
2023/01/06 00:35:36;;;;;;;;;;;7.60;95.00;;;;;;5011988;28;19961;-86
2023/01/06 00:38:02;;;;;;;;;;;7.60;94.90;;;;;;5013701;28;19962;-86
2023/01/06 00:40:27;;;;;;;;;;;7.60;94.90;;;;;;5013857;28;19996;-86
2023/01/06 00:42:53;;;;;;;;;;;7.60;95.10;;;;;;5008507;28;20312;-86
2023/01/06 00:45:18;;;;;;;;;;;7.50;95.00;;;;;;5013519;28;20432;-86
2023/01/06 00:47:44;;;;;;;;;;;7.50;95.00;;;;;;5010583;28;20388;-86
2023/01/06 00:50:09;;;;;;;;;;;7.50;95.00;;;;;;5013866;28;19952;-87
2023/01/06 00:52:35;;;;;;;;;;;7.50;95.20;;;;;;5012720;28;19968;-86
2023/01/06 00:55:00;;;;;;;;;;;7.50;95.20;;;;;;5013685;28;19947;-87
2023/01/06 00:57:26;;;;;;;;;;;7.50;95.20;;;;;;5013637;28;19957;-86
2023/01/06 00:59:51;;;;;;;;;;;7.50;95.20;;;;;;5012891;28;20353;-86
2023/01/06 01:02:17;;;;;;;;;;;7.60;95.20;;;;;;5011472;28;20657;-86
2023/01/06 01:04:43;;;;;;;;;;;7.60;95.10;;;;;;5011602;28;20438;-86
2023/01/06 01:07:09;;;;;;;;;;;7.50;95.00;;;;;;5013066;28;20400;-86
2023/01/06 01:09:35;;;;;;;;;;;7.50;95.00;;;;;;5012643;28;19945;-86
2023/01/06 01:12:10;;;;;;;;;;;7.40;95.00;;;;;;5013521;28;19945;-86
2023/01/06 01:14:37;;;;;;;;;;;7.50;95.00;;;;;;5013474;28;19946;-86
2023/01/06 01:17:03;;;;;;;;;;;7.50;95.00;;;;;;5013383;28;19956;-86
2023/01/06 01:19:29;;;;;;;;;;;7.50;95.10;;;;;;5011230;28;19944;-86
2023/01/06 01:21:54;;;;;;;;;;;7.50;95.10;;;;;;5013424;28;19948;-86
2023/01/06 01:24:20;;;;;;;;;;;7.50;95.00;;;;;;5010508;28;20040;-86
2023/01/06 01:26:46;;;;;;;;;;;7.40;95.00;;;;;;5008530;28;20065;-86
2023/01/06 01:29:15;;;;;;;;;;;7.40;95.20;;;;;;5013419;28;19948;-86
2023/01/06 01:31:41;;;;;;;;;;;7.50;95.30;;;;;;5013300;28;19939;-86
2023/01/06 01:34:06;;;;;;;;;;;7.60;95.20;;;;;;5012976;28;19949;-86
2023/01/06 01:36:32;;;;;;;;;;;7.60;95.10;;;;;;5011626;28;19954;-86
2023/01/06 01:38:58;;;;;;;;;;;7.60;94.80;;;;;;5012204;28;20400;-86
2023/01/06 01:41:24;;;;;;;;;;;7.40;94.90;;;;;;5011765;28;20309;-86
2023/01/06 01:43:51;;;;;;;;;;;7.40;95.00;;;;;;5013421;28;20077;-86
2023/01/06 01:46:18;;;;;;;;;;;7.40;95.20;;;;;;5012512;28;19996;-86
2023/01/06 01:48:44;;;;;;;;;;;7.40;95.10;;;;;;5013184;28;19946;-86
2023/01/06 01:51:11;;;;;;;;;;;7.40;95.30;;;;;;5010928;28;19942;-86
2023/01/06 01:53:42;;;;;;;;;;;7.40;95.20;;;;;;5012971;28;19964;-86
2023/01/06 01:56:10;;;;;;;;;;;7.40;94.90;;;;;;5010361;28;19954;-86
2023/01/06 01:58:39;;;;;;;;;;;7.40;94.90;;;;;;5012994;28;20028;-87
2023/01/06 02:01:05;;;;;;;;;;;7.40;94.90;;;;;;5013036;28;19977;-86
2023/01/06 02:03:31;;;;;;;;;;;7.40;94.80;;;;;;5011337;28;19970;-86
2023/01/06 02:05:58;;;;;;;;;;;7.40;94.80;;;;;;5008855;28;19947;-86
2023/01/06 02:08:28;;;;;;;;;;;7.60;95.00;;;;;;5012724;28;19993;-86
2023/01/06 02:10:53;;;;;;;;;;;7.60;94.90;;;;;;5012982;28;19992;-86
2023/01/06 02:13:19;;;;;;;;;;;7.50;94.80;;;;;;5010890;28;20364;-86
2023/01/06 02:15:44;;;;;;;;;;;7.60;94.90;;;;;;5011415;28;19998;-87
2023/01/06 02:18:17;;;;;;;;;;;7.60;94.60;;;;;;5011962;28;20115;-86
2023/01/06 02:21:01;;;;;;;;;;;7.50;94.50;;;;;;5016181;28;20409;-86
2023/01/06 02:23:45;;;;;;;;;;;7.40;94.60;;;;;;5016542;28;19950;-86
2023/01/06 02:26:29;;;;;;;;;;;7.40;94.40;;;;;;5016517;28;19942;-87
2023/01/06 02:29:13;;;;;;;;;;;7.40;94.70;;;;;;5014883;28;19944;-86
2023/01/06 02:31:45;;;;;;;;;;;7.30;94.70;;;;;;5016366;28;20030;-86
2023/01/06 02:34:25;;;;;;;;;;;7.20;94.80;;;;;;5014139;28;19942;-86
2023/01/06 02:36:54;;;;;;;;;;;7.20;94.70;;;;;;5016231;28;19957;-86
2023/01/06 02:39:34;;;;;;;;;;;7.20;94.60;;;;;;5013525;28;19942;-86
2023/01/06 02:42:12;;;;;;;;;;;7.20;94.60;;;;;;5016208;28;19942;-86
2023/01/06 02:44:48;;;;;;;;;;;7.20;94.80;;;;;;5016112;28;19989;-86
2023/01/06 02:47:13;;;;;;;;;;;7.20;94.50;;;;;;5014355;28;19946;-86
2023/01/06 02:49:41;;;;;;;;;;;7.20;94.40;;;;;;5015045;28;19949;-86
2023/01/06 02:52:30;;;;;;;;;;;7.30;94.40;;;;;;5014190;28;20032;-86
2023/01/06 02:55:07;;;;;;;;;;;7.30;94.20;;;;;;4996293;28;19946;-86
2023/01/06 02:57:32;;;;;;;;;;;7.20;93.90;;;;;;5001121;28;20469;-86
2023/01/06 03:00:06;;;;;;;;;;;7.20;93.80;;;;;;5013094;28;19955;-86
2023/01/06 03:02:32;;;;;;;;;;;7.10;93.50;;;;;;5015840;28;20099;-86
2023/01/06 03:05:00;;;;;;;;;;;7.00;93.40;;;;;;5012164;28;19948;-86
2023/01/06 03:07:27;;;;;;;;;;;6.90;93.20;;;;;;4999011;28;19947;-86
2023/01/06 03:09:53;;;;;;;;;;;6.80;93.30;;;;;;5015706;28;20429;-87
2023/01/06 03:12:32;;;;;;;;;;;6.70;93.40;;;;;;5015699;28;19947;-87
2023/01/06 03:14:57;;;;;;;;;;;6.70;93.60;;;;;;5021043;22;19980;-87
2023/01/06 03:17:23;;;;;;;;;;;6.70;93.90;;;;;;5015469;28;20156;-86
2023/01/06 03:19:51;;;;;;;;;;;6.70;94.10;;;;;;5013050;28;21426;-87
2023/01/06 03:22:16;;;;;;;;;;;6.70;94.00;;;;;;5015455;28;19942;-86
2023/01/06 03:24:42;;;;;;;;;;;6.70;94.00;;;;;;5014171;28;20397;-86
2023/01/06 03:27:08;;;;;;;;;;;6.40;93.70;;;;;;5015361;28;19939;-86
2023/01/06 03:29:35;;;;;;;;;;;6.30;93.80;;;;;;5014792;28;20025;-86
2023/01/06 03:32:03;;;;;;;;;;;6.20;93.80;;;;;;5015293;28;19942;-86
2023/01/06 03:34:32;;;;;;;;;;;6.10;94.50;;;;;;5014435;28;19952;-86
2023/01/06 03:37:03;;;;;;;;;;;6.10;94.60;;;;;;5015088;28;19958;-86
2023/01/06 03:39:41;;;;;;;;;;;6.00;94.60;;;;;;5014832;28;19948;-86
2023/01/06 03:45:03;;;;;;;;;;;6.00;95.00;;;;;;5015050;28;19938;-86
2023/01/06 03:47:37;;;;;;;;;;;6.00;95.20;;;;;;5014482;28;20362;-86
2023/01/06 03:50:13;;;;;;;;;;;5.90;95.50;;;;;;5014161;28;19949;-86
2023/01/06 03:52:44;;;;;;;;;;;5.90;96.20;;;;;;5014762;28;19960;-87
2023/01/06 03:55:16;;;;;;;;;;;5.90;96.50;;;;;;5014674;28;20356;-86
2023/01/06 03:57:45;;;;;;;;;;;5.80;96.30;;;;;;5014478;28;20025;-86
2023/01/06 04:00:17;;;;;;;;;;;5.80;96.50;;;;;;5013413;28;20034;-86
2023/01/06 04:02:44;;;;;;;;;;;5.80;96.30;;;;;;5014516;28;20465;-86
2023/01/06 04:05:11;;;;;;;;;;;5.90;96.30;;;;;;5011393;28;20080;-86
2023/01/06 04:07:37;;;;;;;;;;;5.90;96.30;;;;;;5014542;28;19942;-86
2023/01/06 04:10:03;;;;;;;;;;;5.80;96.10;;;;;;5012796;28;19945;-86
2023/01/06 04:12:38;;;;;;;;;;;5.70;95.80;;;;;;5014410;28;19943;-86
2023/01/06 04:15:10;;;;;;;;;;;5.70;96.10;;;;;;5014491;28;19997;-86
2023/01/06 04:17:40;;;;;;;;;;;5.70;96.00;;;;;;5014394;28;20412;-86
2023/01/06 04:20:06;;;;;;;;;;;5.60;96.00;;;;;;5012667;28;19940;-86
2023/01/06 04:22:32;;;;;;;;;;;5.50;95.60;;;;;;5014351;28;19946;-86
2023/01/06 04:24:57;;;;;;;;;;;5.40;95.50;;;;;;5014310;28;19944;-86
2023/01/06 04:27:23;;;;;;;;;;;5.20;95.30;;;;;;5014280;28;19941;-86
2023/01/06 04:29:48;;;;;;;;;;;5.20;95.30;;;;;;5012752;28;19990;-86
2023/01/06 04:32:14;;;;;;;;;;;5.10;95.30;;;;;;5014174;28;19981;-86
2023/01/06 04:34:39;;;;;;;;;;;5.20;95.40;;;;;;5012545;28;19939;-86
2023/01/06 04:37:05;;;;;;;;;;;5.10;95.30;;;;;;5014017;28;20383;-86
2023/01/06 04:39:30;;;;;;;;;;;5.00;95.20;;;;;;5013323;28;19954;-86
2023/01/06 04:41:56;;;;;;;;;;;5.00;95.30;;;;;;5013244;28;20423;-86
2023/01/06 04:44:21;;;;;;;;;;;5.00;95.30;;;;;;5013973;28;19940;-86
2023/01/06 04:46:47;;;;;;;;;;;4.90;95.40;;;;;;5013960;28;19938;-86
2023/01/06 04:49:12;;;;;;;;;;;4.90;95.40;;;;;;5013428;28;19974;-86
2023/01/06 04:51:38;;;;;;;;;;;4.90;95.50;;;;;;5012646;28;19945;-86
2023/01/06 04:54:03;;;;;;;;;;;4.90;95.50;;;;;;5013668;28;19979;-86
2023/01/06 04:56:29;;;;;;;;;;;4.90;95.50;;;;;;5013637;28;20442;-86
2023/01/06 04:58:55;;;;;;;;;;;4.80;95.30;;;;;;5013481;28;20116;-86
2023/01/06 05:01:20;;;;;;;;;;;4.80;95.20;;;;;;5012489;28;19952;-86
2023/01/06 05:03:46;;;;;;;;;;;4.70;95.00;;;;;;5013682;28;20387;-86
2023/01/06 05:06:11;;;;;;;;;;;4.50;94.50;;;;;;5011239;28;19949;-86
2023/01/06 05:08:38;;;;;;;;;;;4.40;94.20;;;;;;5013484;28;19946;-86
2023/01/06 05:11:04;;;;;;;;;;;4.30;94.10;;;;;;5011912;28;19943;-86
2023/01/06 05:13:30;;;;;;;;;;;4.30;94.40;;;;;;5013506;28;20038;-87
2023/01/06 05:15:56;;;;;;;;;;;4.40;94.80;;;;;;5013358;28;20050;-87
2023/01/06 05:18:22;;;;;;;;;;;4.40;94.60;;;;;;5013331;28;19968;-87
2023/01/06 05:20:51;;;;;;;;;;;4.40;94.80;;;;;;5011736;28;19979;-87
2023/01/06 05:23:16;;;;;;;;;;;4.30;94.60;;;;;;5013371;28;20461;-87
2023/01/06 05:25:42;;;;;;;;;;;4.30;94.50;;;;;;5011970;28;20041;-87
2023/01/06 05:28:07;;;;;;;;;;;4.20;94.50;;;;;;5007238;28;19938;-87
2023/01/06 05:30:33;;;;;;;;;;;4.20;94.40;;;;;;5012094;28;20069;-86
2023/01/06 05:32:58;;;;;;;;;;;4.10;94.40;;;;;;5011582;28;20475;-86
2023/01/06 05:35:24;;;;;;;;;;;4.00;94.30;;;;;;5011652;28;20430;-87
2023/01/06 05:37:52;;;;;;;;;;;4.00;94.60;;;;;;5012158;28;20426;-87
2023/01/06 05:40:18;;;;;;;;;;;4.00;94.90;;;;;;5011525;28;20045;-87
2023/01/06 05:42:43;;;;;;;;;;;4.00;94.50;;;;;;5013223;28;19980;-87
2023/01/06 05:45:09;;;;;;;;;;;4.00;94.80;;;;;;5013188;28;20040;-87
2023/01/06 05:47:34;;;;;;;;;;;4.00;94.60;;;;;;5013153;28;20034;-87
2023/01/06 05:50:00;;;;;;;;;;;3.90;94.30;;;;;;5011425;28;19951;-87
2023/01/06 05:52:26;;;;;;;;;;;3.90;94.30;;;;;;5014999;28;19967;-87
2023/01/06 05:54:51;;;;;;;;;;;3.70;94.10;;;;;;5016724;28;19948;-87
2023/01/06 05:57:17;;;;;;;;;;;3.60;94.60;;;;;;5017004;28;19958;-87
2023/01/06 05:59:42;;;;;;;;;;;3.70;94.80;;;;;;5015766;28;20419;-87
2023/01/06 06:02:08;;;;;;;;;;;3.70;94.50;;;;;;5016830;28;19943;-87
2023/01/06 06:04:33;;;;;;;;;;;3.70;94.50;;;;;;5015214;28;19994;-87
2023/01/06 06:06:59;;;;;;;;;;;3.50;94.60;;;;;;5010449;28;20046;-87
2023/01/06 06:09:24;;;;;;;;;;;3.50;94.60;;;;;;5016846;28;20040;-86
2023/01/06 06:11:52;;;;;;;;;;;3.40;95.10;;;;;;5016845;28;20474;-87
2023/01/06 06:14:17;;;;;;;;;;;3.40;95.60;;;;;;5016717;28;19962;-87
2023/01/06 06:16:43;;;;;;;;;;;3.50;95.70;;;;;;5014758;28;19952;-86
2023/01/06 06:19:10;;;;;;;;;;;3.40;95.50;;;;;;5009297;28;19952;-87
2023/01/06 06:21:36;;;;;;;;;;;3.60;95.80;;;;;;5011828;28;19945;-87
2023/01/06 06:24:02;;;;;;;;;;;3.70;95.70;;;;;;5016278;28;20685;-87
2023/01/06 06:26:27;;;;;;;;;;;3.80;95.40;;;;;;5015661;28;19950;-87
2023/01/06 06:28:53;;;;;;;;;;;3.90;95.20;;;;;;5016480;28;19943;-87
2023/01/06 06:31:21;;;;;;;;;;;4.10;94.90;;;;;;5016404;28;19941;-87
2023/01/06 06:33:53;;;;;;;;;;;4.00;94.40;;;;;;5016323;28;19944;-87
2023/01/06 06:36:19;;;;;;;;;;;4.00;94.20;;;;;;5015557;28;19992;-87
2023/01/06 06:38:45;;;;;;;;;;;4.00;94.10;;;;;;5016253;28;20066;-87
2023/01/06 06:41:11;;;;;;;;;;;4.00;93.80;;;;;;5016259;28;19946;-87
2023/01/06 06:43:37;;;;;;;;;;;3.90;93.50;;;;;;5016191;28;19944;-86
2023/01/06 06:46:03;;;;;;;;;;;3.90;93.30;;;;;;5015498;28;19947;-86
2023/01/06 06:48:28;;;;;;;;;;;3.90;93.30;;;;;;5016075;28;19973;-86
2023/01/06 06:50:57;;;;;;;;;;;3.90;93.40;;;;;;5014468;28;19960;-86
2023/01/06 06:53:22;;;;;;;;;;;4.00;93.80;;;;;;5014118;28;19967;-87
2023/01/06 06:55:48;;;;;;;;;;;4.10;93.80;;;;;;5015582;28;20423;-87
2023/01/06 06:58:13;;;;;;;;;;;4.40;93.60;;;;;;5015877;28;19997;-87
2023/01/06 07:00:39;;;;;;;;;;;4.40;93.10;;;;;;5015892;28;19936;-87
2023/01/06 07:03:05;;;;;;;;;;;4.40;93.10;;;;;;5013366;28;20036;-87
2023/01/06 07:05:30;;;;;;;;;;;4.20;92.90;;;;;;5013800;28;19953;-86
2023/01/06 07:07:56;;;;;;;;;;;4.10;93.20;;;;;;5014913;28;19971;-87
2023/01/06 07:10:21;;;;;;;;;;;4.10;93.60;;;;;;5015922;28;19948;-87
2023/01/06 07:12:47;;;;;;;;;;;4.10;93.50;;;;;;5014980;28;20248;-87
2023/01/06 07:15:12;;;;;;;;;;;3.90;93.60;;;;;;5015444;28;19977;-87
2023/01/06 07:17:38;;;;;;;;;;;3.90;94.00;;;;;;5015242;28;20006;-87
2023/01/06 07:20:04;;;;;;;;;;;4.00;94.10;;;;;;5015345;28;19953;-86
2023/01/06 07:22:29;;;;;;;;;;;4.00;94.50;;;;;;5013650;28;20390;-87
2023/01/06 07:24:55;;;;;;;;;;;4.20;94.60;;;;;;5015428;28;19939;-87
2023/01/06 07:27:21;;;;;;;;;;;4.20;94.70;;;;;;5015364;28;19975;-87
2023/01/06 07:29:46;;;;;;;;;;;4.30;94.90;;;;;;5015273;28;20045;-87
2023/01/06 07:32:12;;;;;;;;;;;4.50;95.00;;;;;;5011236;28;19951;-87
2023/01/06 07:34:37;;;;;;;;;;;4.60;94.90;;;;;;5015076;28;20088;-87
2023/01/06 07:37:02;;;;;;;;;;;4.70;95.00;;;;;;5014409;28;19995;-87
2023/01/06 07:39:28;;;;;;;;;;;4.90;95.00;;;;;;5015397;28;20329;-87
2023/01/06 07:41:54;;;;;;;;;;;4.80;93.80;;;;;;4996925;28;20405;-87
2023/01/06 07:44:19;;;;;;;;;;;4.70;94.70;;;;;;5015126;28;20568;-87
2023/01/06 07:46:45;;;;;;;;;;;4.70;94.70;;;;;;4997199;28;19944;-87
2023/01/06 07:49:10;;;;;;;;;;;4.90;94.90;;;;;;5014883;28;19946;-86
2023/01/06 07:51:36;;;;;;;;;;;5.00;94.60;;;;;;5013239;28;20043;-86
2023/01/06 07:54:01;;;;;;;;;;;5.10;94.50;;;;;;5014745;28;19946;-87
2023/01/06 07:56:27;;;;;;;;;;;5.30;94.50;;;;;;5014786;28;19938;-87
2023/01/06 07:58:55;;;;;;;;;;;5.40;94.40;;;;;;5014723;28;20061;-87
2023/01/06 08:01:21;;;;;;;;;;;5.40;94.30;;;;;;5013037;28;19977;-87
2023/01/06 08:03:46;;;;;;;;;;;5.40;94.30;;;;;;5014691;28;19997;-87
2023/01/06 08:06:12;;;;;;;;;;;5.50;94.30;;;;;;5011434;28;20030;-87
2023/01/06 08:08:38;;;;;;;;;;;5.60;94.20;;;;;;5014597;28;20375;-87
2023/01/06 08:11:04;;;;;;;;;;;5.80;93.80;;;;;;5012921;28;19949;-87
2023/01/06 08:13:30;;;;;;;;;;;5.70;93.20;;;;;;5013710;28;19969;-86
2023/01/06 08:15:55;;;;;;;;;;;5.70;93.20;;;;;;5014295;28;20433;-86
2023/01/06 08:18:21;;;;;;;;;;;5.70;93.30;;;;;;5013554;28;20482;-87
2023/01/06 08:20:47;;;;;;;;;;;5.80;93.40;;;;;;5011816;28;20779;-87
2023/01/06 08:23:12;;;;;;;;;;;5.90;93.50;;;;;;5014395;28;20384;-86
2023/01/06 08:25:38;;;;;;;;;;;6.00;93.40;;;;;;5014346;28;19945;-87
2023/01/06 08:28:03;;;;;;;;;;;6.10;93.50;;;;;;5014306;28;20290;-87
2023/01/06 08:30:29;;;;;;;;;;;6.40;93.40;;;;;;5011455;28;20399;-87
2023/01/06 08:32:55;;;;;;;;;;;6.50;93.10;;;;;;5012890;28;20406;-87
2023/01/06 08:35:20;;;;;;;;;;;6.70;93.00;;;;;;5014134;28;19938;-86
2023/01/06 08:37:46;;;;;;;;;;;6.90;92.80;;;;;;5012262;28;19968;-87
2023/01/06 08:40:12;;;;;;;;;;;7.00;92.20;;;;;;5013222;28;19946;-87
2023/01/06 08:42:37;;;;;;;;;;;6.90;90.70;;;;;;5014026;28;20367;-87
2023/01/06 08:45:03;;;;;;;;;;;6.80;91.00;;;;;;5013425;28;20413;-87
2023/01/06 08:47:28;;;;;;;;;;;6.70;91.20;;;;;;5012624;28;20081;-87
2023/01/06 08:49:54;;;;;;;;;;;6.70;91.40;;;;;;5013941;28;19947;-87
2023/01/06 08:52:19;;;;;;;;;;;6.80;91.40;;;;;;5012961;28;20044;-87
2023/01/06 08:54:45;;;;;;;;;;;6.80;91.10;;;;;;5013697;28;19972;-86
2023/01/06 08:57:10;;;;;;;;;;;7.00;90.60;;;;;;5012958;28;20486;-87
2023/01/06 08:59:36;;;;;;;;;;;7.10;90.40;;;;;;5013765;28;20435;-87
2023/01/06 09:02:01;;;;;;;;;;;7.20;90.10;;;;;;5013734;28;19942;-86
2023/01/06 09:04:27;;;;;;;;;;;7.40;90.00;;;;;;5013643;28;19995;-87
2023/01/06 09:06:53;;;;;;;;;;;7.60;89.40;;;;;;5011259;28;19998;-86
2023/01/06 09:09:18;;;;;;;;;;;7.80;88.00;;;;;;5013633;28;20418;-86
2023/01/06 09:11:44;;;;;;;;;;;7.90;87.10;;;;;;5011960;28;20029;-87
2023/01/06 09:14:10;;;;;;;;;;;7.70;86.60;;;;;;4995451;28;20414;-86
2023/01/06 09:16:36;;;;;;;;;;;7.50;87.90;;;;;;5012225;28;19978;-86
2023/01/06 09:19:02;;;;;;;;;;;7.40;88.20;;;;;;5012618;28;20446;-86
2023/01/06 09:21:27;;;;;;;;;;;7.30;88.90;;;;;;5012462;28;20407;-86
2023/01/06 09:23:53;;;;;;;;;;;7.40;89.10;;;;;;5013171;28;19999;-87
2023/01/06 09:26:20;;;;;;;;;;;7.40;89.40;;;;;;5013193;28;20388;-86
2023/01/06 09:28:46;;;;;;;;;;;7.40;89.70;;;;;;5012320;28;20434;-86
2023/01/06 09:31:11;;;;;;;;;;;7.70;89.40;;;;;;5012721;28;20026;-87
2023/01/06 09:33:37;;;;;;;;;;;7.90;89.20;;;;;;5009802;28;19958;-87
2023/01/06 09:36:03;;;;;;;;;;;8.10;88.90;;;;;;5012280;28;19969;-86
2023/01/06 09:38:28;;;;;;;;;;;8.40;87.60;;;;;;5010446;28;19959;-87
2023/01/06 09:41:10;;;;;;;;;;;8.50;86.60;;;;;;5012327;28;19990;-86
2023/01/06 09:43:46;;;;;;;;;;;8.60;86.00;;;;;;5012865;28;19942;-87
2023/01/06 09:46:13;;;;;;;;;;;8.50;85.80;;;;;;5013218;28;20274;-86
2023/01/06 09:48:41;;;;;;;;;;;8.40;86.80;;;;;;5012083;28;19952;-86
2023/01/06 09:51:08;;;;;;;;;;;8.40;86.80;;;;;;5013202;28;20124;-86
2023/01/06 09:53:36;;;;;;;;;;;8.30;87.20;;;;;;5012063;28;20001;-87
2023/01/06 09:56:04;;;;;;;;;;;8.20;87.50;;;;;;5013068;28;20389;-86
2023/01/06 09:58:39;;;;;;;;;;;8.30;87.60;;;;;;5012063;28;19963;-87
2023/01/06 10:01:09;;;;;;;;;;;8.50;88.00;;;;;;5013356;28;19949;-87
2023/01/06 10:03:35;;;;;;;;;;;8.80;87.30;;;;;;5011994;28;19964;-87
2023/01/06 10:06:07;;;;;;;;;;;8.80;86.90;;;;;;5008441;28;21459;-87
2023/01/06 10:08:41;;;;;;;;;;;9.00;86.60;;;;;;5011948;28;19996;-87
2023/01/06 10:11:06;;;;;;;;;;;9.10;86.80;;;;;;5010036;28;20186;-86
2023/01/06 10:13:32;;;;;;;;;;;9.10;86.10;;;;;;5008402;28;19942;-86
2023/01/06 10:16:08;;;;;;;;;;;9.40;85.20;;;;;;5009077;28;19974;-86
2023/01/06 10:18:34;;;;;;;;;;;9.50;84.20;;;;;;5003421;28;20414;-86
2023/01/06 10:20:59;;;;;;;;;;;9.20;84.70;;;;;;5002045;28;19944;-86
2023/01/06 10:23:45;;;;;;;;;;;9.10;85.80;;;;;;5003398;28;19941;-86
2023/01/06 10:26:21;;;;;;;;;;;9.10;86.50;;;;;;4986058;28;19990;-87
2023/01/06 10:28:52;;;;;;;;;;;9.10;86.20;;;;;;5008234;28;19974;-86
2023/01/06 10:31:19;;;;;;;;;;;9.20;86.40;;;;;;5024403;28;19944;-87
2023/01/06 10:33:49;;;;;;;;;;;9.20;86.40;;;;;;5009398;28;19948;-87
2023/01/06 10:36:16;;;;;;;;;;;9.40;86.40;;;;;;5003151;28;19951;-87
2023/01/06 10:38:45;;;;;;;;;;;9.70;85.50;;;;;;5012159;28;20439;-87
2023/01/06 10:41:26;;;;;;;;;;;9.70;85.20;;;;;;5012375;28;19945;-86
2023/01/06 10:43:51;;;;;;;;;;;9.90;84.40;;;;;;5013999;28;19943;-86
2023/01/06 10:46:17;;;;;;;;;;;9.90;85.10;;;;;;5012895;28;19973;-86
2023/01/06 10:48:44;;;;;;;;;;;9.60;85.10;;;;;;5015699;28;19951;-86
2023/01/06 10:51:28;;;;;;;;;;;9.70;85.90;;;;;;5014534;28;19991;-87
2023/01/06 10:54:00;;;;;;;;;;;9.80;86.20;;;;;;5013992;28;20003;-87
2023/01/06 10:56:27;;;;;;;;;;;9.80;86.00;;;;;;5012778;28;20002;-87
2023/01/06 10:58:55;;;;;;;;;;;9.80;86.40;;;;;;5010469;28;19982;-87
2023/01/06 11:01:25;;;;;;;;;;;9.90;86.50;;;;;;5010674;28;20409;-87
2023/01/06 11:04:10;;;;;;;;;;;10.00;86.50;;;;;;5007043;28;19944;-87
2023/01/06 11:06:38;;;;;;;;;;;10.30;85.90;;;;;;4999246;28;19954;-87
2023/01/06 11:09:20;;;;;;;;;;;10.50;85.30;;;;;;5015082;28;20427;-87
2023/01/06 11:11:49;;;;;;;;;;;10.40;85.10;;;;;;5014647;28;19948;-87
2023/01/06 11:14:16;;;;;;;;;;;10.40;85.10;;;;;;5012620;28;19943;-87
2023/01/06 11:16:42;;;;;;;;;;;10.50;85.10;;;;;;5040273;22;19980;-87
2023/01/06 11:19:18;;;;;;;;;;;10.40;85.50;;;;;;5036041;28;20044;-86
2023/01/06 11:21:47;;;;;;;;;;;10.40;85.50;;;;;;5033080;28;19979;-86
2023/01/06 11:24:23;;;;;;;;;;;10.40;84.70;;;;;;5037373;28;19940;-86
2023/01/06 11:26:51;;;;;;;;;;;10.40;85.50;;;;;;5040366;28;20045;-87
2023/01/06 11:29:18;;;;;;;;;;;10.40;85.50;;;;;;5055108;28;20576;-87
2023/01/06 11:31:46;;;;;;;;;;;10.40;85.50;;;;;;5036681;28;19951;-87
2023/01/06 11:34:18;;;;;;;;;;;10.40;86.00;;;;;;5040728;28;20013;-87
2023/01/06 11:36:46;;;;;;;;;;;10.40;86.10;;;;;;5015179;28;20476;-87
2023/01/06 11:39:15;;;;;;;;;;;10.50;85.50;;;;;;5031950;28;19966;-87
2023/01/06 11:41:44;;;;;;;;;;;10.70;84.00;;;;;;5034962;28;20422;-87
2023/01/06 11:44:12;;;;;;;;;;;10.70;84.40;;;;;;5033463;28;19980;-87
2023/01/06 11:46:44;;;;;;;;;;;10.80;84.50;;;;;;5032525;28;19950;-87
2023/01/06 11:49:13;;;;;;;;;;;10.90;83.50;;;;;;5031303;28;19954;-87
2023/01/06 11:51:42;;;;;;;;;;;10.90;82.80;;;;;;5023348;28;19948;-86
2023/01/06 11:54:42;;;;;;;;;;;10.70;83.60;;;;;;5045098;28;20423;-86
2023/01/06 11:57:08;;;;;;;;;;;10.70;83.90;;;;;;4973360;28;20002;-87
2023/01/06 11:59:42;;;;;;;;;;;10.60;85.20;;;;;;5021857;28;20062;-87
2023/01/06 12:02:12;;;;;;;;;;;10.50;83.70;;;;;;5034496;28;19949;-87
2023/01/06 12:04:41;;;;;;;;;;;10.60;84.20;;;;;;5053841;28;19948;-87
2023/01/06 12:07:25;;;;;;;;;;;10.70;84.10;;;;;;5052112;28;19949;-87
2023/01/06 12:09:51;;;;;;;;;;;10.90;83.50;;;;;;5054251;28;19940;-87
2023/01/06 12:12:19;;;;;;;;;;;11.10;83.00;;;;;;5053182;28;19951;-87
2023/01/06 12:14:44;;;;;;;;;;;11.20;82.50;;;;;;5053319;28;19947;-87
2023/01/06 12:17:13;;;;;;;;;;;11.40;80.60;;;;;;5052858;28;19966;-87
2023/01/06 12:19:46;;;;;;;;;;;11.60;79.30;;;;;;5054142;28;20032;-86
2023/01/06 12:22:26;;;;;;;;;;;11.80;78.10;;;;;;5052870;28;19994;-87
2023/01/06 12:24:54;;;;;;;;;;;11.60;78.60;;;;;;5053981;28;19941;-86
2023/01/06 12:27:25;;;;;;;;;;;11.50;79.50;;;;;;5053986;28;19941;-86
2023/01/06 12:29:51;;;;;;;;;;;11.40;80.00;;;;;;5052791;28;19945;-86
2023/01/06 12:32:20;;;;;;;;;;;11.40;80.90;;;;;;5052796;28;20481;-87
2023/01/06 12:34:48;;;;;;;;;;;11.40;80.30;;;;;;5052655;28;19948;-86
2023/01/06 12:37:28;;;;;;;;;;;11.40;80.30;;;;;;5052574;28;19964;-87
2023/01/06 12:40:03;;;;;;;;;;;11.40;80.40;;;;;;5053750;28;19936;-87
2023/01/06 12:42:34;;;;;;;;;;;11.50;79.70;;;;;;5052156;28;19944;-87
2023/01/06 12:45:09;;;;;;;;;;;11.70;78.60;;;;;;5053619;28;19947;-87
2023/01/06 12:47:38;;;;;;;;;;;11.90;77.40;;;;;;5052530;28;19944;-87
2023/01/06 12:50:03;;;;;;;;;;;12.00;76.00;;;;;;5053599;28;19938;-87
2023/01/06 12:52:35;;;;;;;;;;;12.00;75.40;;;;;;5052226;28;20053;-87
2023/01/06 12:55:01;;;;;;;;;;;12.00;76.00;;;;;;5053390;28;19941;-86
2023/01/06 12:57:40;;;;;;;;;;;11.90;75.80;;;;;;5052724;28;19960;-86
2023/01/06 13:00:16;;;;;;;;;;;11.80;76.80;;;;;;5053419;28;20380;-86
2023/01/06 13:02:41;;;;;;;;;;;11.70;78.40;;;;;;5052654;28;20396;-86
2023/01/06 13:05:19;;;;;;;;;;;11.60;78.30;;;;;;5052152;28;19953;-87
2023/01/06 13:07:57;;;;;;;;;;;11.50;78.10;;;;;;5051341;28;19944;-87
2023/01/06 13:10:31;;;;;;;;;;;11.60;78.00;;;;;;5053274;28;19965;-87
2023/01/06 13:13:02;;;;;;;;;;;11.60;77.60;;;;;;5052824;28;20043;-87
2023/01/06 13:15:29;;;;;;;;;;;11.60;78.20;;;;;;5049462;28;20344;-87
2023/01/06 13:18:13;;;;;;;;;;;11.60;76.90;;;;;;5053078;28;20402;-87
2023/01/06 13:20:41;;;;;;;;;;;11.70;75.80;;;;;;5053064;28;19937;-87
2023/01/06 13:23:10;;;;;;;;;;;11.60;76.80;;;;;;5051924;28;20027;-87
2023/01/06 13:25:38;;;;;;;;;;;11.60;76.60;;;;;;5053087;28;19938;-86
2023/01/06 13:28:19;;;;;;;;;;;11.40;77.20;;;;;;5053029;28;20408;-86
2023/01/06 13:30:56;;;;;;;;;;;11.40;77.70;;;;;;5051970;28;19965;-86
2023/01/06 13:33:37;;;;;;;;;;;11.30;77.00;;;;;;5052981;28;20458;-87
2023/01/06 13:36:14;;;;;;;;;;;11.30;77.60;;;;;;5052931;28;19986;-87
2023/01/06 13:39:12;;;;;;;;;;;11.30;77.10;;;;;;5050624;28;20416;-87
2023/01/06 13:41:39;;;;;;;;;;;11.30;76.40;;;;;;4997774;28;20589;-86
2023/01/06 13:44:10;;;;;;;;;;;11.50;75.10;;;;;;5034824;28;19945;-87
2023/01/06 13:46:36;;;;;;;;;;;11.70;74.70;;;;;;5052884;28;19947;-87
2023/01/06 13:49:03;;;;;;;;;;;11.80;75.30;;;;;;5051713;28;19948;-87
2023/01/06 13:51:31;;;;;;;;;;;11.70;74.40;;;;;;5051686;28;19997;-87
2023/01/06 13:53:59;;;;;;;;;;;11.70;74.60;;;;;;5051768;28;19962;-87
2023/01/06 13:56:26;;;;;;;;;;;11.60;74.50;;;;;;5052725;28;20393;-87
2023/01/06 13:59:11;;;;;;;;;;;11.70;74.50;;;;;;5051461;28;19946;-87
2023/01/06 14:01:37;;;;;;;;;;;11.70;75.50;;;;;;5052620;28;19953;-86
2023/01/06 14:04:21;;;;;;;;;;;11.60;76.80;;;;;;5051501;28;19950;-87
2023/01/06 14:06:46;;;;;;;;;;;11.40;76.00;;;;;;5051727;28;19937;-87
2023/01/06 14:09:16;;;;;;;;;;;11.30;75.90;;;;;;5051162;28;20009;-86
2023/01/06 14:11:41;;;;;;;;;;;11.20;76.60;;;;;;5052369;28;20011;-87
2023/01/06 14:14:29;;;;;;;;;;;11.20;77.30;;;;;;5055394;28;20419;-87
2023/01/06 14:16:55;;;;;;;;;;;11.30;78.10;;;;;;5036180;28;20003;-87
2023/01/06 14:19:32;;;;;;;;;;;11.40;78.00;;;;;;5036482;28;19935;-87
2023/01/06 14:22:15;;;;;;;;;;;11.50;76.70;;;;;;5036232;28;20041;-87
2023/01/06 14:24:42;;;;;;;;;;;11.70;75.90;;;;;;5036429;28;19938;-86
2023/01/06 14:27:10;;;;;;;;;;;11.90;74.10;;;;;;5036364;28;20029;-86
2023/01/06 14:29:38;;;;;;;;;;;11.90;73.50;;;;;;5044665;28;19980;-86
2023/01/06 14:32:08;;;;;;;;;;;11.60;73.90;;;;;;5056183;28;20031;-86
2023/01/06 14:34:35;;;;;;;;;;;11.40;75.00;;;;;;5056117;28;20408;-86
2023/01/06 14:37:01;;;;;;;;;;;11.10;76.40;;;;;;5055992;28;19999;-86